Time;durP1;ratioP1;P1;durP2;ratioP2;P2;SDS_P1;SDS_P2;PMS_P1;PMS_P2;Temp;Humidity;BMP_temperature;BMP_pressure;BME280_temperature;BME280_humidity;BME280_pressure;Samples;Min_cycle;Max_cycle;Signal;HPM_P1;HPM_P2
2022/09/25 00:01:40;;;;;;;22.03;17.23;;;;;;;11.32;100.00;95883.66;5018655;28;20086;-77
2022/09/25 00:04:05;;;;;;;20.40;16.47;;;;;;;11.25;100.00;95885.34;5023236;28;20401;-75
2022/09/25 00:06:32;;;;;;;19.93;15.13;;;;;;;11.20;100.00;95882.38;5005526;28;20024;-75
2022/09/25 00:09:00;;;;;;;19.80;16.53;;;;;;;11.07;100.00;95882.94;5023347;28;20825;-75
2022/09/25 00:11:29;;;;;;;19.87;16.00;;;;;;;11.02;100.00;95882.63;5005056;28;20032;-75
2022/09/25 00:13:58;;;;;;;19.67;15.57;;;;;;;10.97;100.00;95874.44;5018240;28;20029;-77
2022/09/25 00:16:26;;;;;;;19.90;14.83;;;;;;;10.90;100.00;95873.47;5022389;28;20048;-76
2022/09/25 00:21:37;;;;;;;19.70;15.53;;;;;;;10.89;100.00;95877.91;5054385;28;20028;-77
2022/09/25 00:24:06;;;;;;;17.77;14.70;;;;;;;10.86;100.00;95872.97;5055735;28;21374;-75
2022/09/25 00:26:34;;;;;;;17.97;15.17;;;;;;;10.85;100.00;95879.25;5069884;28;20039;-77
2022/09/25 00:29:01;;;;;;;19.63;15.23;;;;;;;10.90;100.00;95886.59;5056935;28;20063;-77
2022/09/25 00:31:27;;;;;;;18.43;14.77;;;;;;;10.94;100.00;95883.50;5056283;28;20033;-77
2022/09/25 00:33:56;;;;;;;21.37;15.53;;;;;;;10.90;100.00;95884.81;5054387;28;20490;-76
2022/09/25 00:36:22;;;;;;;18.80;14.67;;;;;;;10.96;100.00;95881.50;5070359;28;20036;-77
2022/09/25 00:38:49;;;;;;;16.33;13.50;;;;;;;10.86;100.00;95880.88;5055478;28;20029;-76
2022/09/25 00:41:17;;;;;;;17.73;14.23;;;;;;;10.91;100.00;95878.56;5058160;28;20025;-76
2022/09/25 00:43:49;;;;;;;16.97;14.20;;;;;;;10.94;100.00;95886.13;5052963;28;20028;-77
2022/09/25 00:46:24;;;;;;;17.20;14.17;;;;;;;10.94;100.00;95891.38;5040222;28;20025;-77
2022/09/25 00:49:02;;;;;;;16.97;13.37;;;;;;;10.90;100.00;95884.81;5043691;28;20051;-76
2022/09/25 00:51:37;;;;;;;16.77;13.33;;;;;;;10.82;100.00;95883.03;5027730;28;20352;-74
2022/09/25 00:54:06;;;;;;;19.47;15.03;;;;;;;10.81;100.00;95881.38;5045650;28;20123;-76
2022/09/25 00:56:39;;;;;;;20.07;15.97;;;;;;;10.84;100.00;95881.06;5027324;28;20040;-77
2022/09/25 00:59:06;;;;;;;;;;;;;;;10.87;100.00;95873.81;5044359;28;20394;-77
2022/09/25 01:01:32;;;;;;;20.70;15.57;;;;;;;10.82;100.00;95866.41;5044576;28;19916;-76
2022/09/25 01:03:58;;;;;;;34.10;16.67;;;;;;;10.77;100.00;95874.00;5051434;28;20525;-77
2022/09/25 01:06:26;;;;;;;29.37;16.73;;;;;;;10.82;100.00;95864.59;5052202;28;20463;-76
2022/09/25 01:08:53;;;;;;;51.40;18.73;;;;;;;10.82;100.00;95861.97;5051499;28;20115;-77
2022/09/25 01:11:18;;;;;;;70.70;18.97;;;;;;;10.82;100.00;95859.34;5041515;28;20032;-74
2022/09/25 01:13:44;;;;;;;29.70;17.57;;;;;;;10.82;100.00;95859.34;5059382;28;20120;-76
2022/09/25 01:16:31;;;;;;;64.97;18.70;;;;;;;10.73;100.00;95852.50;5055478;28;20036;-76
2022/09/25 01:19:09;;;;;;;47.60;19.00;;;;;;;10.67;100.00;95850.53;5062898;28;20025;-77
2022/09/25 01:21:43;;;;;;;59.70;19.20;;;;;;;10.70;100.00;95852.81;5057232;28;20672;-76
2022/09/25 01:24:27;;;;;;;35.03;17.27;;;;;;;10.74;100.00;95848.03;5051043;28;20041;-73
2022/09/25 01:26:53;;;;;;;90.30;18.00;;;;;;;10.75;100.00;95852.31;5035391;28;20337;-76
2022/09/25 01:29:27;;;;;;;58.40;16.40;;;;;;;10.73;100.00;95857.75;5052250;28;20032;-75
2022/09/25 01:32:09;;;;;;;256.07;25.00;;;;;;;10.74;100.00;95843.59;5049653;28;20584;-75
2022/09/25 01:34:56;;;;;;;58.90;15.87;;;;;;;10.72;100.00;95847.38;5053467;28;20035;-75
2022/09/25 01:37:32;;;;;;;68.13;15.77;;;;;;;10.69;100.00;95850.34;5054077;28;20036;-75
2022/09/25 01:40:08;;;;;;;61.07;16.70;;;;;;;10.72;100.00;95852.66;5055484;28;20087;-77
2022/09/25 01:43:11;;;;;;;76.10;16.50;;;;;;;10.64;100.00;95855.31;5054839;28;20052;-77
2022/09/25 01:45:43;;;;;;;49.60;14.90;;;;;;;10.65;100.00;95856.94;5043353;28;20044;-77
2022/09/25 01:48:12;;;;;;;82.27;15.87;;;;;;;10.58;100.00;95859.44;5054371;28;20776;-77
2022/09/25 01:50:48;;;;;;;65.00;14.40;;;;;;;10.59;100.00;95854.00;5035226;28;20055;-76
2022/09/25 01:53:22;;;;;;;65.80;13.90;;;;;;;10.54;100.00;95858.94;5043850;28;20093;-77
2022/09/25 01:55:54;;;;;;;59.60;14.77;;;;;;;10.53;100.00;95854.69;5043597;28;20417;-77
2022/09/25 01:58:26;;;;;;;57.70;13.70;;;;;;;10.51;100.00;95856.66;5043718;28;20060;-76
2022/09/25 02:00:58;;;;;;;13.00;9.02;;;;;;;10.49;100.00;95853.34;5041782;28;20032;-76
2022/09/25 02:03:35;;;;;;;39.20;12.27;;;;;;;10.50;100.00;95851.56;5048515;28;20025;-77
2022/09/25 02:06:05;;;;;;;29.73;13.80;;;;;;;10.57;100.00;95853.34;5044850;28;20063;-76
2022/09/25 02:08:38;;;;;;;40.93;13.63;;;;;;;10.61;100.00;95854.66;5049349;28;20512;-76
2022/09/25 02:11:06;;;;;;;20.50;13.32;;;;;;;10.62;100.00;95851.03;5047854;28;20497;-76
2022/09/25 02:13:50;;;;;;;43.17;13.80;;;;;;;10.58;100.00;95849.72;5047229;28;20112;-77
2022/09/25 02:16:21;;;;;;;36.87;13.63;;;;;;;10.58;100.00;95852.34;5045922;28;20037;-77
2022/09/25 02:21:42;;;;;;;74.03;15.67;;;;;;;10.48;100.00;95859.59;5060561;28;20104;-77
2022/09/25 02:24:55;;;;;;;42.50;13.50;;;;;;;10.51;100.00;95856.66;5059457;28;20028;-76
2022/09/25 02:27:23;;;;;;;40.10;14.47;;;;;;;10.53;100.00;95862.56;5033517;28;20426;-77
2022/09/25 02:29:50;;;;;;;37.23;13.90;;;;;;;10.52;100.00;95850.41;5063252;28;20135;-77
2022/09/25 02:32:20;;;;;;;18.43;14.13;;;;;;;10.55;100.00;95849.25;5069763;28;20083;-76
2022/09/25 02:34:46;;;;;;;21.93;13.73;;;;;;;10.54;100.00;95853.69;5059365;28;20482;-76
2022/09/25 02:37:16;;;;;;;17.83;13.67;;;;;;;10.54;100.00;95848.44;5057516;28;20087;-76
2022/09/25 02:39:48;;;;;;;19.20;15.07;;;;;;;10.59;100.00;95854.00;5066491;28;20041;-76
2022/09/25 02:42:17;;;;;;;20.35;14.35;;;;;;;10.59;100.00;95856.63;5057921;28;20028;-75
2022/09/25 02:45:04;;;;;;;18.43;14.27;;;;;;;10.65;100.00;95854.31;5056200;28;20037;-77
2022/09/25 02:47:49;;;;;;;19.13;14.60;;;;;;;10.64;100.00;95855.31;5056170;28;20025;-75
2022/09/25 02:50:33;;;;;;;17.60;13.97;;;;;;;10.67;100.00;95847.91;5056869;28;20494;-76
2022/09/25 02:53:10;;;;;;;20.07;15.23;;;;;;;10.68;100.00;95853.97;5046235;28;20051;-74
2022/09/25 02:56:11;;;;;;;18.57;14.93;;;;;;;10.65;100.00;95847.25;5047818;28;20069;-77
2022/09/25 02:58:41;;;;;;;27.47;15.23;;;;;;;10.59;100.00;95846.09;5045295;28;20062;-74
2022/09/25 03:01:12;;;;;;;38.50;14.83;;;;;;;10.55;100.00;95847.44;5049814;28;20029;-75
2022/09/25 03:03:40;;;;;;;22.73;15.67;;;;;;;10.64;100.00;95852.69;5041639;28;20029;-77
2022/09/25 03:06:07;;;;;;;18.10;14.70;;;;;;;10.72;100.00;95850.00;5045638;28;20032;-76
2022/09/25 03:08:37;;;;;;;17.47;14.60;;;;;;;10.54;100.00;95844.97;5030977;28;20127;-76
2022/09/25 03:11:05;;;;;;;20.00;14.87;;;;;;;10.50;100.00;95848.94;5044157;28;20041;-76
2022/09/25 03:13:32;;;;;;;17.07;14.17;;;;;;;10.56;100.00;95846.47;5048580;28;20497;-77
2022/09/25 03:16:06;;;;;;;18.97;14.80;;;;;;;10.55;100.00;95844.81;5045040;28;20381;-76
2022/09/25 03:18:33;;;;;;;21.97;15.00;;;;;;;10.53;100.00;95846.78;5046173;28;20036;-76
2022/09/25 03:20:58;;;;;;;17.90;14.67;;;;;;;10.59;100.00;95846.09;5049035;28;20040;-76
2022/09/25 03:23:24;;;;;;;17.50;14.00;;;;;;;10.62;100.00;95848.38;5047499;28;20032;-77
2022/09/25 03:25:54;;;;;;;18.77;14.73;;;;;;;10.62;100.00;95851.03;5058938;28;20029;-77
2022/09/25 03:28:21;;;;;;;17.60;13.53;;;;;;;10.64;100.00;95848.25;5057189;28;20058;-76
2022/09/25 03:31:04;;;;;;;14.77;12.70;;;;;;;10.62;100.00;95844.94;5057281;28;20028;-77
2022/09/25 03:33:36;;;;;;;17.27;14.33;;;;;;;10.56;100.00;95841.19;5057387;28;20037;-77
2022/09/25 03:36:11;;;;;;;16.50;13.83;;;;;;;10.49;100.00;95840.22;5054755;28;20102;-76
2022/09/25 03:38:40;;;;;;;17.07;13.50;;;;;;;10.54;100.00;95839.72;5054588;28;20166;-76
2022/09/25 03:41:07;;;;;;;16.37;12.90;;;;;;;10.56;100.00;95841.19;5056303;28;20024;-77
2022/09/25 03:43:35;;;;;;;18.07;14.10;;;;;;;10.61;100.00;95833.63;5059527;28;20028;-77
2022/09/25 03:46:05;;;;;;;16.90;13.57;;;;;;;10.68;100.00;95831.13;5072697;28;20035;-75
2022/09/25 03:48:31;;;;;;;19.23;14.23;;;;;;;10.58;100.00;95831.31;5058019;28;20029;-76
2022/09/25 03:50:57;;;;;;;22.03;15.53;;;;;;;10.60;100.00;95834.63;5050515;28;20059;-75
2022/09/25 03:53:24;;;;;;;20.63;14.73;;;;;;;10.57;100.00;95828.88;5048054;28;20047;-76
2022/09/25 03:55:50;;;;;;;21.73;15.00;;;;;;;10.64;100.00;95829.03;5043193;28;20108;-75
2022/09/25 03:58:16;;;;;;;24.07;15.57;;;;;;;10.65;100.00;95830.66;5050187;28;20032;-77
2022/09/25 04:00:44;;;;;;;26.00;16.97;;;;;;;10.62;100.00;95832.63;5027254;28;20111;-77
2022/09/25 04:03:11;;;;;;;30.37;16.70;;;;;;;10.56;100.00;95820.16;5042923;28;20032;-77
2022/09/25 04:05:38;;;;;;;25.23;16.73;;;;;;;10.56;100.00;95821.94;5046703;28;20541;-76
2022/09/25 04:08:04;;;;;;;23.97;16.20;;;;;;;10.54;100.00;95823.94;5043550;28;20619;-77
2022/09/25 04:10:31;;;;;;;24.57;16.43;;;;;;;10.53;100.00;95823.13;5043068;28;20048;-75
2022/09/25 04:12:57;;;;;;;25.87;16.37;;;;;;;10.55;100.00;95829.03;5044103;28;20033;-76
2022/09/25 04:15:23;;;;;;;27.63;16.70;;;;;;;10.50;100.00;95826.09;5041770;28;20516;-75
2022/09/25 04:17:50;;;;;;;25.77;16.47;;;;;;;10.53;100.00;95819.66;5027187;28;20032;-76
2022/09/25 04:20:16;;;;;;;26.80;17.20;;;;;;;10.52;100.00;95826.72;5044331;28;20047;-75
2022/09/25 04:22:41;;;;;;;26.83;17.47;;;;;;;10.52;100.00;95823.28;5057376;28;20032;-75
2022/09/25 04:25:08;;;;;;;30.43;18.23;;;;;;;10.50;100.00;95828.72;5058370;28;21220;-77
2022/09/25 04:27:35;;;;;;;29.90;17.87;;;;;;;10.52;100.00;95831.16;5057985;28;20059;-76
2022/09/25 04:30:03;;;;;;;33.13;17.87;;;;;;;10.49;100.00;95828.88;5054656;28;20267;-77
2022/09/25 04:35:12;;;;;;;25.47;15.43;;;;;;;10.41;100.00;95837.63;5058900;28;20040;-75
2022/09/25 04:37:38;;;;;;;33.23;19.33;;;;;;;10.45;100.00;95838.91;5059225;28;20020;-77
2022/09/25 04:40:06;;;;;;;26.47;16.57;;;;;;;10.46;100.00;95840.56;5060281;28;20033;-74
2022/09/25 04:42:32;;;;;;;29.53;17.13;;;;;;;10.53;100.00;95835.44;5057022;28;20032;-77
2022/09/25 04:44:58;;;;;;;29.47;18.17;;;;;;;10.39;100.00;95836.94;5059669;28;20025;-77
2022/09/25 04:47:27;;;;;;;26.23;17.23;;;;;;;10.46;100.00;95837.09;5060769;28;20383;-77
2022/09/25 04:49:52;;;;;;;26.30;16.17;;;;;;;10.48;100.00;95843.84;5057989;28;20051;-77
2022/09/25 04:52:19;;;;;;;29.00;18.93;;;;;;;10.45;100.00;95832.84;5049260;28;20024;-77
2022/09/25 04:54:45;;;;;;;38.60;17.27;;;;;;;10.38;100.00;95827.44;5047717;28;20111;-77
2022/09/25 04:57:19;;;;;;;39.37;19.40;;;;;;;10.37;100.00;95826.63;5027875;28;20040;-77
2022/09/25 04:59:45;;;;;;;28.77;18.07;;;;;;;10.40;100.00;95825.47;5044344;28;20502;-77
2022/09/25 05:02:11;;;;;;;26.93;17.93;;;;;;;10.46;100.00;95824.81;5045620;28;20852;-76
2022/09/25 05:04:37;;;;;;;27.67;18.00;;;;;;;10.51;100.00;95819.84;5053974;28;20036;-77
2022/09/25 05:07:03;;;;;;;31.40;19.30;;;;;;;10.53;100.00;95823.13;5042805;28;20077;-76
2022/09/25 05:09:29;;;;;;;37.43;18.57;;;;;;;10.37;100.00;95821.34;5041880;28;20036;-75
2022/09/25 05:11:55;;;;;;;37.83;17.60;;;;;;;10.35;100.00;95823.31;5051720;28;20025;-76
2022/09/25 05:14:22;;;;;;;28.43;17.57;;;;;;;10.41;100.00;95827.09;5040383;28;20028;-76
2022/09/25 05:16:48;;;;;;;29.23;16.87;;;;;;;10.45;100.00;95838.09;5048102;28;20042;-76
2022/09/25 05:19:14;;;;;;;44.57;18.33;;;;;;;10.37;100.00;95831.88;5045272;28;20043;-76
2022/09/25 05:21:40;;;;;;;42.93;17.13;;;;;;;10.40;100.00;95843.06;5039693;28;20016;-76
2022/09/25 05:24:09;;;;;;;26.30;16.97;;;;;;;10.50;100.00;95833.97;5057120;28;20103;-76
2022/09/25 05:26:38;;;;;;;29.23;17.83;;;;;;;10.53;100.00;95838.06;5060689;28;20066;-75
2022/09/25 05:29:04;;;;;;;45.10;18.57;;;;;;;10.49;100.00;95831.50;5057200;28;20483;-75
2022/09/25 05:31:33;;;;;;;41.37;17.63;;;;;;;10.47;100.00;95836.94;5057084;28;20029;-76
2022/09/25 05:33:58;;;;;;;29.57;17.00;;;;;;;10.53;100.00;95841.53;5060879;28;20025;-76
2022/09/25 05:36:24;;;;;;;68.50;16.47;;;;;;;10.51;100.00;95835.63;5057610;28;20082;-76
2022/09/25 05:38:50;;;;;;;38.53;16.77;;;;;;;10.50;100.00;95841.88;5056733;28;20923;-76
2022/09/25 05:41:16;;;;;;;38.03;16.63;;;;;;;10.45;100.00;95838.91;5061797;28;20032;-76
2022/09/25 05:43:45;;;;;;;42.07;17.10;;;;;;;10.50;100.00;95841.06;5057273;28;20028;-76
2022/09/25 05:46:11;;;;;;;31.20;16.77;;;;;;;10.57;100.00;95840.22;5039470;28;20049;-76
2022/09/25 05:48:36;;;;;;;30.50;17.93;;;;;;;10.59;100.00;95846.09;5056515;28;20041;-76
2022/09/25 05:51:02;;;;;;;29.20;17.30;;;;;;;10.61;100.00;95840.69;5052878;28;20032;-76
2022/09/25 05:53:29;;;;;;;35.03;17.83;;;;;;;10.57;100.00;95842.03;5033666;28;20036;-73
2022/09/25 05:56:00;;;;;;;31.63;17.70;;;;;;;10.71;100.00;95840.50;5044602;28;21326;-76
2022/09/25 05:58:28;;;;;;;27.93;16.60;;;;;;;10.69;100.00;95831.94;5046373;28;20056;-75
2022/09/25 06:00:54;;;;;;;21.43;15.77;;;;;;;10.60;100.00;95826.72;5042452;28;20162;-75
2022/09/25 06:03:20;;;;;;;20.97;15.50;;;;;;;10.69;100.00;95824.06;5043186;28;20028;-73
2022/09/25 06:05:47;;;;;;;28.13;14.90;;;;;;;10.74;100.00;95827.00;5043967;28;20616;-76
2022/09/25 06:08:14;;;;;;;21.00;14.97;;;;;;;10.74;100.00;95821.75;5043016;28;20116;-76
2022/09/25 06:10:40;;;;;;;17.30;13.23;;;;;;;10.78;100.00;95823.03;5027298;28;20199;-74
2022/09/25 06:13:07;;;;;;;18.97;14.30;;;;;;;10.75;100.00;95823.38;5047805;28;20045;-76
2022/09/25 06:15:39;;;;;;;19.97;15.33;;;;;;;10.89;100.00;95814.75;5047156;28;20036;-73
2022/09/25 06:18:06;;;;;;;20.90;14.63;;;;;;;10.96;100.00;95817.53;5051994;28;20051;-75
2022/09/25 06:20:32;;;;;;;17.60;13.87;;;;;;;11.04;100.00;95814.88;5047266;28;20105;-74
2022/09/25 06:22:59;;;;;;;19.23;14.97;;;;;;;11.14;100.00;95825.19;5057086;28;20064;-76
2022/09/25 06:25:35;;;;;;;18.43;14.57;;;;;;;11.16;100.00;95815.28;5057617;28;20038;-76
2022/09/25 06:28:01;;;;;;;17.63;13.47;;;;;;;11.18;100.00;95827.28;5042696;28;20467;-76
2022/09/25 06:30:35;;;;;;;17.87;13.43;;;;;;;11.17;100.00;95814.31;5072650;28;20036;-76
2022/09/25 06:33:06;;;;;;;17.50;13.53;;;;;;;11.20;100.00;95822.69;5064641;28;20420;-77
2022/09/25 06:35:33;;;;;;;17.23;13.40;;;;;;;11.31;100.00;95824.91;5067998;28;20062;-75
2022/09/25 06:38:00;;;;;;;17.47;13.23;;;;;;;11.28;100.00;95821.81;5068771;28;20123;-77
2022/09/25 06:40:28;;;;;;;17.27;14.20;;;;;;;11.38;100.00;95829.50;5063770;28;20031;-75
2022/09/25 06:42:55;;;;;;;20.00;14.77;;;;;;;11.32;100.00;95831.00;5067367;28;20047;-76
2022/09/25 06:45:21;;;;;;;17.13;13.93;;;;;;;11.29;100.00;95839.25;5062236;28;20089;-77
2022/09/25 06:47:47;;;;;;;17.67;13.63;;;;;;;11.19;100.00;95841.28;5058230;28;20128;-77
2022/09/25 06:50:13;;;;;;;20.53;16.03;;;;;;;11.23;100.00;95832.03;5064511;28;20043;-77
2022/09/25 06:52:43;;;;;;;22.73;15.97;;;;;;;11.30;100.00;95843.50;5062980;28;20029;-77
2022/09/25 06:55:09;;;;;;;20.27;14.80;;;;;;;11.25;100.00;95840.59;5064767;28;20039;-77
2022/09/25 06:57:36;;;;;;;17.77;13.90;;;;;;;11.31;100.00;95845.97;5066828;28;20035;-75
2022/09/25 07:00:04;;;;;;;19.73;16.03;;;;;;;11.39;100.00;95842.47;5050338;28;20032;-75
2022/09/25 07:05:17;;;;;;;18.77;15.23;;;;;;;11.45;100.00;95839.16;5063894;28;20093;-77
2022/09/25 07:07:44;;;;;;;16.43;13.13;;;;;;;11.42;100.00;95834.22;5064894;28;20494;-75
2022/09/25 07:10:10;;;;;;;17.17;13.67;;;;;;;11.38;100.00;95830.31;5066961;28;20056;-76
2022/09/25 07:12:37;;;;;;;17.17;13.20;;;;;;;11.51;100.00;95841.09;5065394;28;20040;-77
2022/09/25 07:15:03;;;;;;;17.70;13.77;;;;;;;11.48;100.00;95841.44;5055488;28;20039;-76
2022/09/25 07:17:29;;;;;;;17.53;14.37;;;;;;;11.48;100.00;95840.63;5057020;28;20028;-75
2022/09/25 07:19:54;;;;;;;18.23;14.37;;;;;;;11.45;100.00;95843.59;5047713;28;20056;-73
2022/09/25 07:22:20;;;;;;;19.40;15.30;;;;;;;11.45;100.00;95844.41;5066891;28;20029;-76
2022/09/25 07:24:46;;;;;;;18.73;15.23;;;;;;;11.41;100.00;95844.94;5046590;28;20081;-76
2022/09/25 07:27:12;;;;;;;21.20;16.37;;;;;;;11.62;100.00;95852.22;5067723;28;20040;-75
2022/09/25 07:29:37;;;;;;;20.77;17.07;;;;;;;11.65;100.00;95855.31;5065762;28;20086;-74
2022/09/25 07:32:03;;;;;;;20.77;16.30;;;;;;;11.60;100.00;95862.09;5068632;28;20128;-76
2022/09/25 07:34:29;;;;;;;22.57;16.93;;;;;;;11.59;100.00;95853.38;5069216;28;20032;-74
2022/09/25 07:36:55;;;;;;;23.47;18.03;;;;;;;11.57;100.00;95856.19;5066933;28;20035;-75
2022/09/25 07:39:21;;;;;;;22.97;18.20;;;;;;;11.52;100.00;95855.06;5067036;28;20432;-77
2022/09/25 07:41:46;;;;;;;21.67;17.50;;;;;;;11.52;100.00;95853.25;5068496;28;20028;-76
2022/09/25 07:44:12;;;;;;;23.27;18.70;;;;;;;11.61;100.00;95861.13;5061487;28;20040;-75
2022/09/25 07:46:43;;;;;;;23.50;17.77;;;;;;;11.63;100.00;95857.28;5063293;28;20028;-74
2022/09/25 07:49:09;;;;;;;22.90;17.90;;;;;;;11.67;100.00;95857.75;5059923;28;20029;-76
2022/09/25 07:51:34;;;;;;;23.30;18.13;;;;;;;11.59;100.00;95857.81;5063438;28;20037;-75
2022/09/25 07:54:00;;;;;;;27.53;18.43;;;;;;;11.62;100.00;95853.03;5059402;28;20036;-75
2022/09/25 07:56:26;;;;;;;23.20;16.70;;;;;;;11.75;100.00;95855.91;5047070;28;20032;-75
2022/09/25 07:58:52;;;;;;;21.00;16.40;;;;;;;11.74;100.00;95854.28;5068020;28;20123;-74
2022/09/25 08:01:18;;;;;;;22.97;17.80;;;;;;;11.95;100.00;95851.00;5067852;28;20029;-75
2022/09/25 08:03:44;;;;;;;23.00;17.77;;;;;;;12.09;100.00;95843.31;5063485;28;20112;-76
2022/09/25 08:06:12;;;;;;;22.67;17.00;;;;;;;12.30;100.00;95847.91;5043247;28;20456;-76
2022/09/25 08:08:42;;;;;;;22.47;17.20;;;;;;;12.58;100.00;95846.31;5066030;28;20039;-76
2022/09/25 08:11:10;;;;;;;22.50;17.40;;;;;;;12.89;100.00;95834.75;5056492;28;20119;-76
2022/09/25 08:13:37;;;;;;;20.33;15.37;;;;;;;12.91;100.00;95833.56;5062191;28;20036;-76
2022/09/25 08:16:11;;;;;;;23.13;18.10;;;;;;;12.87;100.00;95834.91;5060641;28;20055;-77
2022/09/25 08:18:40;;;;;;;26.23;19.30;;;;;;;12.87;100.00;95832.28;5061860;28;20029;-78
2022/09/25 08:21:07;;;;;;;17.73;14.50;;;;;;;12.79;100.00;95835.03;5063474;28;20037;-76
2022/09/25 08:23:33;;;;;;;17.53;14.57;;;;;;;12.64;100.00;95835.03;5067314;28;20077;-75
2022/09/25 08:26:00;;;;;;;19.40;15.17;;;;;;;12.81;100.00;95832.19;5041312;28;20276;-77
2022/09/25 08:28:26;;;;;;;29.83;18.13;;;;;;;12.87;100.00;95834.91;5041924;28;20064;-77
2022/09/25 08:30:52;;;;;;;22.07;16.70;;;;;;;12.96;100.00;95823.28;5070522;28;20127;-76
2022/09/25 08:33:18;;;;;;;18.80;14.30;;;;;;;13.00;100.00;95822.91;5065677;28;20033;-76
2022/09/25 08:35:54;;;;;;;16.87;13.37;;;;;;;12.97;100.00;95818.81;5058512;28;20049;-77
2022/09/25 08:38:20;;;;;;;16.80;14.07;;;;;;;13.17;100.00;95811.13;5061368;28;20029;-76
2022/09/25 08:41:00;;;;;;;18.13;14.07;;;;;;;13.39;100.00;95810.19;5064086;28;20117;-77
2022/09/25 08:43:27;;;;;;;16.33;12.97;;;;;;;14.00;100.00;95785.97;5060248;28;20037;-76
2022/09/25 08:49:09;;;;;;;20.85;17.02;;;;;;;13.98;100.00;95797.72;5068952;28;20337;-75
2022/09/25 08:51:47;;;;;;;15.48;12.55;;;;;;;13.77;100.00;95790.63;5062830;28;20409;-76
2022/09/25 08:54:25;;;;;;;15.65;12.65;;;;;;;13.81;100.00;95791.88;5059507;28;20035;-76
2022/09/25 08:56:55;;;;;;;17.60;13.68;;;;;;;13.91;100.00;95793.19;5047498;28;20457;-77
2022/09/25 08:59:30;;;;;;;16.60;12.55;;;;;;;13.72;100.00;95787.75;5065288;28;20040;-77
2022/09/25 09:02:00;;;;;;;16.73;12.40;;;;;;;14.05;100.00;95788.00;5063348;28;20067;-76
2022/09/25 09:04:40;;;;;;;17.17;13.98;;;;;;;14.02;100.00;95783.94;5041396;28;20404;-76
2022/09/25 09:07:38;;;;;;;15.20;11.77;;;;;;;14.07;100.00;95780.72;5059714;28;20370;-77
2022/09/25 09:10:25;;;;;;;16.48;12.32;;;;;;;14.19;100.00;95776.56;5011379;28;20040;-76
2022/09/25 09:13:29;;;;;;;16.33;12.50;;;;;;;14.04;100.00;95778.47;5033158;28;20566;-75
2022/09/25 09:16:06;;;;;;;17.40;12.75;;;;;;;13.81;100.00;95776.03;5003852;28;20106;-77
2022/09/25 09:18:37;;;;;;;16.05;12.20;;;;;;;13.72;100.00;95782.47;5023187;28;20040;-75
2022/09/25 09:21:31;;;;;;;17.67;12.77;;;;;;;13.78;100.00;95787.81;5022796;28;20091;-77
2022/09/25 09:24:17;;;;;;;17.10;12.30;;;;;;;13.85;100.00;95788.69;5025335;28;20047;-77
2022/09/25 09:26:52;;;;;;;15.73;11.60;;;;;;;13.85;100.00;95791.34;5009193;28;20098;-75
2022/09/25 09:29:20;;;;;;;14.85;12.15;;;;;;;13.91;100.00;95781.81;5023575;28;20056;-76
2022/09/25 09:32:02;;;;;;;16.48;11.95;;;;;;;13.77;100.00;95780.88;5003470;28;20029;-76
2022/09/25 09:34:35;;;;;;;14.37;11.23;;;;;;;13.84;100.00;95787.03;5021966;28;20058;-76
2022/09/25 09:37:14;;;;;;;16.17;11.40;;;;;;;13.98;100.00;95782.69;5012266;28;20067;-75
2022/09/25 09:39:49;;;;;;;14.68;11.25;;;;;;;13.89;100.00;95782.00;4995731;28;20043;-76
2022/09/25 09:42:17;;;;;;;15.55;10.98;;;;;;;13.87;100.00;95784.03;4973169;28;20772;-76
2022/09/25 09:44:57;;;;;;;12.77;10.38;;;;;;;13.98;100.00;95781.88;5019444;28;20036;-76
2022/09/25 09:47:38;;;;;;;13.52;9.27;;;;;;;13.95;100.00;95787.53;5064353;28;20062;-76
2022/09/25 09:50:12;;;;;;;12.70;9.68;;;;;;;13.86;100.00;95779.75;5057830;28;20048;-76
2022/09/25 09:52:43;;;;;;;11.13;8.80;;;;;;;13.82;100.00;95775.84;5066046;28;20044;-76
2022/09/25 09:55:21;;;;;;;13.80;10.77;;;;;;;14.06;100.00;95774.63;5062909;28;20040;-76
2022/09/25 09:58:12;;;;;;;17.33;11.68;;;;;;;14.04;100.00;95781.91;5059014;28;20928;-76
2022/09/25 10:00:40;;;;;;;12.90;8.57;;;;;;;13.73;100.00;95771.72;5067697;28;20036;-76
2022/09/25 10:03:28;;;;;;;11.80;8.50;;;;;;;13.79;100.00;95775.44;5053118;28;20454;-76
2022/09/25 10:06:08;;;;;;;12.23;9.52;;;;;;;13.92;100.00;95772.91;4968994;28;20510;-76
2022/09/25 10:08:34;;;;;;;12.38;8.70;;;;;;;14.19;100.00;95765.97;4960584;28;20043;-76
2022/09/25 10:11:08;;;;;;;12.50;9.02;;;;;;;14.18;100.00;95761.66;4990898;28;20125;-76
2022/09/25 10:13:39;;;;;;;11.52;8.65;;;;;;;13.99;100.00;95765.00;4971482;28;20549;-76
2022/09/25 10:16:16;;;;;;;11.90;8.57;;;;;;;14.08;100.00;95769.97;5007493;28;20024;-76
2022/09/25 10:19:20;;;;;;;10.80;8.43;;;;;;;13.99;100.00;95762.38;4968521;28;20040;-76
2022/09/25 10:22:11;;;;;;;11.20;7.20;;;;;;;13.87;100.00;95768.16;4985700;28;20199;-77
2022/09/25 10:25:01;;;;;;;10.25;8.07;;;;;;;13.95;100.00;95763.75;4955694;28;20042;-76
2022/09/25 10:27:31;;;;;;;9.55;7.45;;;;;;;13.88;100.00;95761.88;5063016;28;20048;-76
2022/09/25 10:30:20;;;;;;;11.68;7.20;;;;;;;13.66;100.00;95763.72;5054893;28;20406;-77
2022/09/25 10:32:55;;;;;;;9.60;7.30;;;;;;;13.55;100.00;95760.78;5063457;28;20787;-76
2022/09/25 10:35:27;;;;;;;9.30;7.40;;;;;;;13.84;100.00;95762.44;5024176;28;23320;-75
2022/09/25 10:37:56;;;;;;;9.48;7.07;;;;;;;13.71;100.00;95764.97;4956484;28;20098;-76
2022/09/25 10:40:33;;;;;;;9.57;6.72;;;;;;;13.78;100.00;95766.69;4963374;28;20037;-76
2022/09/25 10:43:05;;;;;;;9.13;5.80;;;;;;;13.70;100.00;95764.16;4988966;28;20025;-76
2022/09/25 10:45:35;;;;;;;8.63;6.00;;;;;;;13.75;100.00;95759.13;4989702;28;20030;-76
2022/09/25 10:51:07;;;;;;;9.20;5.30;;;;;;;13.83;100.00;95756.34;4968419;28;20029;-76
2022/09/25 10:53:33;;;;;;;8.93;5.38;;;;;;;13.78;100.00;95766.69;4984058;28;20559;-76
2022/09/25 10:56:05;;;;;;;10.45;6.15;;;;;;;13.90;100.00;95770.41;4969150;28;20033;-76
2022/09/25 10:58:35;;;;;;;9.40;6.95;;;;;;;13.98;100.00;95755.44;4969977;28;21783;-75
2022/09/25 11:01:02;;;;;;;11.57;7.00;;;;;;;13.75;100.00;95760.94;5039567;28;20501;-75
2022/09/25 11:03:46;;;;;;;9.30;5.97;;;;;;;13.64;100.00;95764.91;4977924;28;20021;-76
2022/09/25 11:06:32;;;;;;;;;;;;;;;13.70;100.00;95772.09;4973623;28;20036;-75
2022/09/25 11:09:00;;;;;;;9.02;6.47;;;;;;;13.74;100.00;95778.63;4969525;28;20081;-75
2022/09/25 11:11:48;;;;;;;8.23;6.07;;;;;;;13.78;100.00;95774.59;4974922;28;20019;-76
2022/09/25 11:14:31;;;;;;;10.77;6.63;;;;;;;13.76;100.00;95773.97;4960127;28;20037;-77
2022/09/25 11:16:59;;;;;;;10.15;6.95;;;;;;;13.94;100.00;95784.06;4975457;28;20025;-77
2022/09/25 11:19:32;;;;;;;9.82;6.00;;;;;;;14.08;100.00;95771.78;4976838;28;20532;-77
2022/09/25 11:22:07;;;;;;;;;;;;;;;14.08;100.00;95769.13;4979267;28;20450;-77
2022/09/25 11:24:57;;;;;;;10.40;6.38;;;;;;;14.32;100.00;95763.41;4959171;28;19916;-75
2022/09/25 11:27:42;;;;;;;8.50;6.30;;;;;;;14.56;100.00;95758.69;4969106;28;20066;-76
2022/09/25 11:30:15;;;;;;;9.35;6.47;;;;;;;14.42;100.00;95764.88;4976547;28;20063;-76
2022/09/25 11:32:44;;;;;;;;;;;;;;;14.50;100.00;95762.09;4951853;28;20040;-74
2022/09/25 11:35:35;;;;;;;9.05;6.68;;;;;;;14.35;100.00;95752.44;4952885;28;19912;-76
2022/09/25 11:41:10;;;;;;;8.73;6.13;;;;;;;14.47;100.00;95750.06;4970066;28;20190;-75
2022/09/25 11:41:27;;;;;;;8.50;6.28;;;;;;;14.35;100.00;95751.59;4973689;28;20073;-75
2022/09/25 11:43:56;;;;;;;8.73;6.75;;;;;;;14.59;100.00;95753.03;4973795;28;20462;-76
2022/09/25 12:05:34;;;;;;;12.40;8.82;;;;;;;14.46;100.00;95732.56;5098508;27;20501;-76
2022/09/25 12:08:00;;;;;;;20.23;14.93;;;;;;;14.32;100.00;95741.44;5068118;28;20044;-76